sensor_id;sensor_type;location;lat;lon;timestamp;pressure;altitude;pressure_sealevel;temperature;humidity
44297;BME280;51842;47.450;8.654;2024-01-07T00:02:00;94724.97;;;1.74;100.00
44297;BME280;51842;47.450;8.654;2024-01-07T00:04:25;94723.13;;;1.74;100.00
44297;BME280;51842;47.450;8.654;2024-01-07T00:06:51;94730.22;;;1.74;100.00
44297;BME280;51842;47.450;8.654;2024-01-07T00:09:17;94724.84;;;1.69;100.00
44297;BME280;51842;47.450;8.654;2024-01-07T00:11:43;94718.56;;;1.70;100.00
44297;BME280;51842;47.450;8.654;2024-01-07T00:14:09;94716.97;;;1.69;100.00
44297;BME280;51842;47.450;8.654;2024-01-07T00:16:35;94723.13;;;1.62;100.00
44297;BME280;51842;47.450;8.654;2024-01-07T00:19:01;94720.50;;;1.62;100.00
44297;BME280;51842;47.450;8.654;2024-01-07T00:21:27;94722.91;;;1.64;100.00
44297;BME280;51842;47.450;8.654;2024-01-07T00:23:53;94719.16;;;1.60;100.00
44297;BME280;51842;47.450;8.654;2024-01-07T00:26:19;94719.94;;;1.60;100.00
44297;BME280;51842;47.450;8.654;2024-01-07T00:28:45;94730.22;;;1.62;100.00
44297;BME280;51842;47.450;8.654;2024-01-07T00:31:13;94719.94;;;1.60;100.00
44297;BME280;51842;47.450;8.654;2024-01-07T00:33:39;94721.31;;;1.63;100.00
44297;BME280;51842;47.450;8.654;2024-01-07T00:36:05;94722.25;;;1.57;100.00
44297;BME280;51842;47.450;8.654;2024-01-07T00:38:31;94724.28;;;1.55;100.00
44297;BME280;51842;47.450;8.654;2024-01-07T00:40:57;94719.50;;;1.52;100.00
44297;BME280;51842;47.450;8.654;2024-01-07T00:43:22;94716.63;;;1.53;100.00
44297;BME280;51842;47.450;8.654;2024-01-07T00:45:48;94719.69;;;1.50;100.00
44297;BME280;51842;47.450;8.654;2024-01-07T00:48:14;94712.88;;;1.49;100.00
44297;BME280;51842;47.450;8.654;2024-01-07T00:50:41;94718.56;;;1.46;100.00
44297;BME280;51842;47.450;8.654;2024-01-07T00:53:07;94716.75;;;1.47;100.00
44297;BME280;51842;47.450;8.654;2024-01-07T00:55:33;94714.38;;;1.45;100.00
44297;BME280;51842;47.450;8.654;2024-01-07T00:58:01;94712.97;;;1.43;100.00
44297;BME280;51842;47.450;8.654;2024-01-07T01:00:28;94716.19;;;1.45;100.00
44297;BME280;51842;47.450;8.654;2024-01-07T01:02:55;94719.28;;;1.42;100.00
44297;BME280;51842;47.450;8.654;2024-01-07T01:05:20;94719.03;;;1.43;100.00
44297;BME280;51842;47.450;8.654;2024-01-07T01:07:46;94720.41;;;1.46;100.00
44297;BME280;51842;47.450;8.654;2024-01-07T01:10:12;94723.03;;;1.46;100.00
44297;BME280;51842;47.450;8.654;2024-01-07T01:12:40;94726.44;;;1.46;100.00
44297;BME280;51842;47.450;8.654;2024-01-07T01:15:06;94720.75;;;1.49;100.00
44297;BME280;51842;47.450;8.654;2024-01-07T01:17:32;94725.53;;;1.52;100.00
44297;BME280;51842;47.450;8.654;2024-01-07T01:19:58;94729.75;;;1.53;100.00
44297;BME280;51842;47.450;8.654;2024-01-07T01:22:24;94732.16;;;1.55;100.00
44297;BME280;51842;47.450;8.654;2024-01-07T01:24:50;94733.75;;;1.56;100.00
44297;BME280;51842;47.450;8.654;2024-01-07T01:27:16;94730.56;;;1.54;100.00
44297;BME280;51842;47.450;8.654;2024-01-07T01:29:42;94726.31;;;1.53;100.00
44297;BME280;51842;47.450;8.654;2024-01-07T01:32:08;94728.50;;;1.44;100.00
44297;BME280;51842;47.450;8.654;2024-01-07T01:34:34;94724.84;;;1.45;100.00
44297;BME280;51842;47.450;8.654;2024-01-07T01:37:00;94732.38;;;1.42;100.00
44297;BME280;51842;47.450;8.654;2024-01-07T01:39:26;94736.59;;;1.43;100.00
44297;BME280;51842;47.450;8.654;2024-01-07T01:41:52;94733.19;;;1.42;100.00
44297;BME280;51842;47.450;8.654;2024-01-07T01:44:18;94735.81;;;1.42;100.00
44297;BME280;51842;47.450;8.654;2024-01-07T01:46:45;94735.81;;;1.42;100.00
44297;BME280;51842;47.450;8.654;2024-01-07T01:49:12;94737.97;;;1.45;100.00
44297;BME280;51842;47.450;8.654;2024-01-07T01:51:39;94737.75;;;1.47;100.00
44297;BME280;51842;47.450;8.654;2024-01-07T01:54:05;94736.38;;;1.44;100.00
44297;BME280;51842;47.450;8.654;2024-01-07T01:56:33;94742.44;;;1.45;100.00
44297;BME280;51842;47.450;8.654;2024-01-07T01:59:00;94737.19;;;1.45;100.00
44297;BME280;51842;47.450;8.654;2024-01-07T02:01:26;94742.78;;;1.48;100.00
44297;BME280;51842;47.450;8.654;2024-01-07T02:03:52;94736.16;;;1.46;100.00
44297;BME280;51842;47.450;8.654;2024-01-07T02:06:21;94741.41;;;1.46;100.00
44297;BME280;51842;47.450;8.654;2024-01-07T02:08:47;94751.31;;;1.44;100.00
44297;BME280;51842;47.450;8.654;2024-01-07T02:11:20;94745.06;;;1.45;100.00
44297;BME280;51842;47.450;8.654;2024-01-07T02:13:47;94740.81;;;1.44;100.00
44297;BME280;51842;47.450;8.654;2024-01-07T02:16:14;94744.72;;;1.41;100.00
44297;BME280;51842;47.450;8.654;2024-01-07T02:18:44;94741.50;;;1.39;100.00
44297;BME280;51842;47.450;8.654;2024-01-07T02:21:13;94744.94;;;1.39;100.00
44297;BME280;51842;47.450;8.654;2024-01-07T02:23:39;94739.09;;;1.37;100.00
44297;BME280;51842;47.450;8.654;2024-01-07T02:26:06;94754.84;;;1.37;100.00
44297;BME280;51842;47.450;8.654;2024-01-07T02:28:33;94752.69;;;1.34;100.00
44297;BME280;51842;47.450;8.654;2024-01-07T02:31:00;94752.13;;;1.32;100.00
44297;BME280;51842;47.450;8.654;2024-01-07T02:33:26;94743.78;;;1.35;100.00
44297;BME280;51842;47.450;8.654;2024-01-07T02:35:52;94746.75;;;1.39;100.00
44297;BME280;51842;47.450;8.654;2024-01-07T02:38:17;94741.97;;;1.36;100.00
44297;BME280;51842;47.450;8.654;2024-01-07T02:40:43;94737.50;;;1.36;100.00
44297;BME280;51842;47.450;8.654;2024-01-07T02:43:09;94739.00;;;1.32;100.00
44297;BME280;51842;47.450;8.654;2024-01-07T02:45:35;94739.00;;;1.32;100.00
44297;BME280;51842;47.450;8.654;2024-01-07T02:48:01;94738.88;;;1.27;100.00
44297;BME280;51842;47.450;8.654;2024-01-07T02:50:27;94742.97;;;1.23;100.00
44297;BME280;51842;47.450;8.654;2024-01-07T02:52:52;94732.25;;;1.25;100.00
44297;BME280;51842;47.450;8.654;2024-01-07T02:55:18;94735.47;;;1.27;100.00
44297;BME280;51842;47.450;8.654;2024-01-07T02:57:44;94734.22;;;1.29;100.00
44297;BME280;51842;47.450;8.654;2024-01-07T03:00:10;94733.41;;;1.29;100.00
44297;BME280;51842;47.450;8.654;2024-01-07T03:02:36;94735.31;;;1.22;100.00
44297;BME280;51842;47.450;8.654;2024-01-07T03:05:02;94739.13;;;1.26;100.00
44297;BME280;51842;47.450;8.654;2024-01-07T03:07:28;94736.03;;;1.29;100.00
44297;BME280;51842;47.450;8.654;2024-01-07T03:09:54;94745.94;;;1.27;100.00
44297;BME280;51842;47.450;8.654;2024-01-07T03:12:20;94741.75;;;1.26;100.00
44297;BME280;51842;47.450;8.654;2024-01-07T03:14:46;94749.81;;;1.24;100.00
44297;BME280;51842;47.450;8.654;2024-01-07T03:17:12;94751.31;;;1.20;100.00
44297;BME280;51842;47.450;8.654;2024-01-07T03:19:38;94742.06;;;1.18;100.00
44297;BME280;51842;47.450;8.654;2024-01-07T03:22:05;94749.22;;;1.22;100.00
44297;BME280;51842;47.450;8.654;2024-01-07T03:24:33;94749.81;;;1.24;100.00
44297;BME280;51842;47.450;8.654;2024-01-07T03:26:59;94750.63;;;1.25;100.00
44297;BME280;51842;47.450;8.654;2024-01-07T03:29:24;94742.97;;;1.23;100.00
44297;BME280;51842;47.450;8.654;2024-01-07T03:31:50;94740.38;;;1.23;100.00
44297;BME280;51842;47.450;8.654;2024-01-07T03:34:19;94738.41;;;1.19;100.00
44297;BME280;51842;47.450;8.654;2024-01-07T03:36:45;94749.94;;;1.18;100.00
44297;BME280;51842;47.450;8.654;2024-01-07T03:39:11;94741.56;;;1.09;100.00
44297;BME280;51842;47.450;8.654;2024-01-07T03:41:37;94751.97;;;1.15;100.00
44297;BME280;51842;47.450;8.654;2024-01-07T03:44:03;94749.13;;;1.17;100.00
44297;BME280;51842;47.450;8.654;2024-01-07T03:46:29;94741.81;;;1.19;100.00
44297;BME280;51842;47.450;8.654;2024-01-07T03:48:55;94748.09;;;1.18;100.00
44297;BME280;51842;47.450;8.654;2024-01-07T03:51:21;94747.88;;;1.20;100.00
44297;BME280;51842;47.450;8.654;2024-01-07T03:53:46;94754.59;;;1.15;100.00
44297;BME280;51842;47.450;8.654;2024-01-07T03:56:12;94753.59;;;1.17;100.00
44297;BME280;51842;47.450;8.654;2024-01-07T03:58:38;94752.31;;;1.19;100.00
44297;BME280;51842;47.450;8.654;2024-01-07T04:01:04;94748.34;;;1.17;100.00
44297;BME280;51842;47.450;8.654;2024-01-07T04:03:30;94744.53;;;1.12;100.00
44297;BME280;51842;47.450;8.654;2024-01-07T04:05:56;94752.22;;;1.14;100.00
44297;BME280;51842;47.450;8.654;2024-01-07T04:08:22;94749.78;;;1.12;100.00
44297;BME280;51842;47.450;8.654;2024-01-07T04:10:48;94755.16;;;1.06;100.00
44297;BME280;51842;47.450;8.654;2024-01-07T04:13:14;94752.75;;;1.04;100.00
44297;BME280;51842;47.450;8.654;2024-01-07T04:15:40;94754.34;;;1.05;100.00
44297;BME280;51842;47.450;8.654;2024-01-07T04:18:06;94754.13;;;1.07;100.00
44297;BME280;51842;47.450;8.654;2024-01-07T04:20:32;94761.19;;;1.06;100.00
44297;BME280;51842;47.450;8.654;2024-01-07T04:22:58;94760.63;;;1.04;100.00
44297;BME280;51842;47.450;8.654;2024-01-07T04:25:25;94758.81;;;1.05;100.00
44297;BME280;51842;47.450;8.654;2024-01-07T04:27:50;94764.84;;;1.05;100.00
44297;BME280;51842;47.450;8.654;2024-01-07T04:30:16;94763.81;;;1.06;100.00
44297;BME280;51842;47.450;8.654;2024-01-07T04:32:42;94764.84;;;1.05;100.00
44297;BME280;51842;47.450;8.654;2024-01-07T04:35:08;94765.63;;;1.06;100.00
44297;BME280;51842;47.450;8.654;2024-01-07T04:37:37;94761.28;;;1.00;100.00
44297;BME280;51842;47.450;8.654;2024-01-07T04:40:03;94758.47;;;1.01;100.00
44297;BME280;51842;47.450;8.654;2024-01-07T04:42:29;94759.25;;;1.02;100.00
44297;BME280;51842;47.450;8.654;2024-01-07T04:44:55;94766.88;;;1.03;100.00
44297;BME280;51842;47.450;8.654;2024-01-07T04:47:32;94769.28;;;1.05;100.00
44297;BME280;51842;47.450;8.654;2024-01-07T04:50:04;94767.31;;;1.00;100.00
44297;BME280;51842;47.450;8.654;2024-01-07T04:52:30;94769.75;;;1.02;100.00
44297;BME280;51842;47.450;8.654;2024-01-07T04:54:56;94773.59;;;0.99;100.00
44297;BME280;51842;47.450;8.654;2024-01-07T04:57:23;94771.22;;;0.98;100.00
44297;BME280;51842;47.450;8.654;2024-01-07T04:59:50;94780.09;;;0.97;100.00
44297;BME280;51842;47.450;8.654;2024-01-07T05:02:17;94774.06;;;0.96;100.00
44297;BME280;51842;47.450;8.654;2024-01-07T05:04:43;94783.75;;;0.96;100.00
44297;BME280;51842;47.450;8.654;2024-01-07T05:07:09;94775.88;;;0.96;100.00
44297;BME280;51842;47.450;8.654;2024-01-07T05:09:35;94779.31;;;0.96;100.00
44297;BME280;51842;47.450;8.654;2024-01-07T05:12:01;94785.56;;;0.95;100.00
44297;BME280;51842;47.450;8.654;2024-01-07T05:14:27;94782.94;;;0.95;100.00
44297;BME280;51842;47.450;8.654;2024-01-07T05:16:54;94783.16;;;0.93;100.00
44297;BME280;51842;47.450;8.654;2024-01-07T05:19:20;94785.00;;;0.93;100.00
44297;BME280;51842;47.450;8.654;2024-01-07T05:21:46;94781.22;;;0.89;100.00
44297;BME280;51842;47.450;8.654;2024-01-07T05:24:12;94779.84;;;0.86;100.00
44297;BME280;51842;47.450;8.654;2024-01-07T05:26:41;94794.78;;;0.86;100.00
44297;BME280;51842;47.450;8.654;2024-01-07T05:29:07;94793.19;;;0.85;100.00
44297;BME280;51842;47.450;8.654;2024-01-07T05:31:33;94790.56;;;0.85;100.00
44297;BME280;51842;47.450;8.654;2024-01-07T05:33:59;94791.22;;;0.80;100.00
44297;BME280;51842;47.450;8.654;2024-01-07T05:36:25;94787.56;;;0.81;100.00
44297;BME280;51842;47.450;8.654;2024-01-07T05:38:51;94800.69;;;0.81;100.00
44297;BME280;51842;47.450;8.654;2024-01-07T05:41:17;94794.44;;;0.82;100.00
44297;BME280;51842;47.450;8.654;2024-01-07T05:43:43;94807.31;;;0.84;100.00
44297;BME280;51842;47.450;8.654;2024-01-07T05:46:09;94806.50;;;0.83;100.00
44297;BME280;51842;47.450;8.654;2024-01-07T05:48:48;94803.88;;;0.83;100.00
44297;BME280;51842;47.450;8.654;2024-01-07T05:51:15;94810.72;;;0.84;100.00
44297;BME280;51842;47.450;8.654;2024-01-07T05:53:44;94812.78;;;0.82;100.00
44297;BME280;51842;47.450;8.654;2024-01-07T05:56:11;94807.19;;;0.79;100.00
44297;BME280;51842;47.450;8.654;2024-01-07T05:58:37;94802.75;;;0.79;100.00
44297;BME280;51842;47.450;8.654;2024-01-07T06:01:03;94807.53;;;0.82;100.00
44297;BME280;51842;47.450;8.654;2024-01-07T06:03:29;94812.78;;;0.82;100.00
44297;BME280;51842;47.450;8.654;2024-01-07T06:05:55;94811.41;;;0.80;100.00
44297;BME280;51842;47.450;8.654;2024-01-07T06:08:21;94808.78;;;0.80;100.00
44297;BME280;51842;47.450;8.654;2024-01-07T06:10:47;94810.59;;;0.79;100.00
44297;BME280;51842;47.450;8.654;2024-01-07T06:13:12;94814.47;;;0.77;100.00
44297;BME280;51842;47.450;8.654;2024-01-07T06:15:38;94812.06;;;0.75;100.00
44297;BME280;51842;47.450;8.654;2024-01-07T06:18:04;94821.75;;;0.75;100.00
44297;BME280;51842;47.450;8.654;2024-01-07T06:20:30;94813.31;;;0.73;100.00
44297;BME280;51842;47.450;8.654;2024-01-07T06:22:56;94821.63;;;0.69;100.00
44297;BME280;51842;47.450;8.654;2024-01-07T06:25:22;94824.69;;;0.66;100.00
44297;BME280;51842;47.450;8.654;2024-01-07T06:27:48;94820.69;;;0.64;100.00
44297;BME280;51842;47.450;8.654;2024-01-07T06:30:14;94826.72;;;0.64;100.00
44297;BME280;51842;47.450;8.654;2024-01-07T06:32:40;94824.09;;;0.64;100.00
44297;BME280;51842;47.450;8.654;2024-01-07T06:35:07;94825.69;;;0.65;100.00
44297;BME280;51842;47.450;8.654;2024-01-07T06:37:34;94830.38;;;0.63;100.00
44297;BME280;51842;47.450;8.654;2024-01-07T06:40:00;94835.47;;;0.58;100.00
44297;BME280;51842;47.450;8.654;2024-01-07T06:42:26;94837.50;;;0.56;100.00
44297;BME280;51842;47.450;8.654;2024-01-07T06:44:52;94844.34;;;0.57;100.00
44297;BME280;51842;47.450;8.654;2024-01-07T06:47:18;94837.50;;;0.56;100.00
44297;BME280;51842;47.450;8.654;2024-01-07T06:49:44;94837.38;;;0.51;100.00
44297;BME280;51842;47.450;8.654;2024-01-07T06:52:10;94849.88;;;0.49;100.00
44297;BME280;51842;47.450;8.654;2024-01-07T06:54:36;94840.19;;;0.50;100.00
44297;BME280;51842;47.450;8.654;2024-01-07T06:57:03;94843.03;;;0.48;100.00
44297;BME280;51842;47.450;8.654;2024-01-07T06:59:29;94845.66;;;0.48;100.00
44297;BME280;51842;47.450;8.654;2024-01-07T07:01:54;94848.50;;;0.46;100.00
44297;BME280;51842;47.450;8.654;2024-01-07T07:04:22;94850.56;;;0.44;100.00
44297;BME280;51842;47.450;8.654;2024-01-07T07:06:48;94844.50;;;0.44;100.00
44297;BME280;51842;47.450;8.654;2024-01-07T07:09:14;94852.72;;;0.48;100.00
44297;BME280;51842;47.450;8.654;2024-01-07T07:11:41;94846.47;;;0.49;100.00
44297;BME280;51842;47.450;8.654;2024-01-07T07:14:07;94852.50;;;0.49;100.00
44297;BME280;51842;47.450;8.654;2024-01-07T07:16:33;94851.47;;;0.50;100.00
44297;BME280;51842;47.450;8.654;2024-01-07T07:18:59;94854.31;;;0.49;100.00
44297;BME280;51842;47.450;8.654;2024-01-07T07:21:24;94853.28;;;0.50;100.00
44297;BME280;51842;47.450;8.654;2024-01-07T07:23:52;94859.81;;;0.47;100.00
44297;BME280;51842;47.450;8.654;2024-01-07T07:26:18;94856.16;;;0.48;100.00
44297;BME280;51842;47.450;8.654;2024-01-07T07:28:43;94865.03;;;0.47;100.00
44297;BME280;51842;47.450;8.654;2024-01-07T07:31:11;94861.38;;;0.48;100.00
44297;BME280;51842;47.450;8.654;2024-01-07T07:33:40;94861.38;;;0.48;100.00
44297;BME280;51842;47.450;8.654;2024-01-07T07:36:07;94865.25;;;0.45;100.00
44297;BME280;51842;47.450;8.654;2024-01-07T07:38:33;94863.84;;;0.43;100.00
44297;BME280;51842;47.450;8.654;2024-01-07T07:41:00;94862.97;;;0.49;100.00
44297;BME280;51842;47.450;8.654;2024-01-07T07:43:26;94870.66;;;0.51;100.00
44297;BME280;51842;47.450;8.654;2024-01-07T07:45:52;94876.88;;;0.50;100.00
44297;BME280;51842;47.450;8.654;2024-01-07T07:48:19;94876.88;;;0.50;100.00
44297;BME280;51842;47.450;8.654;2024-01-07T07:50:45;94873.47;;;0.49;100.00
44297;BME280;51842;47.450;8.654;2024-01-07T07:53:11;94878.28;;;0.52;100.00
44297;BME280;51842;47.450;8.654;2024-01-07T07:55:37;94883.06;;;0.55;100.00
44297;BME280;51842;47.450;8.654;2024-01-07T07:58:03;94880.09;;;0.52;100.00
44297;BME280;51842;47.450;8.654;2024-01-07T08:00:29;94886.38;;;0.51;100.00
44297;BME280;51842;47.450;8.654;2024-01-07T08:02:55;94880.09;;;0.52;100.00
44297;BME280;51842;47.450;8.654;2024-01-07T08:05:20;94884.91;;;0.55;100.00
44297;BME280;51842;47.450;8.654;2024-01-07T08:07:46;94881.25;;;0.56;100.00
44297;BME280;51842;47.450;8.654;2024-01-07T08:10:12;94889.13;;;0.56;100.00
44297;BME280;51842;47.450;8.654;2024-01-07T08:12:38;94883.44;;;0.59;100.00
44297;BME280;51842;47.450;8.654;2024-01-07T08:15:06;94895.16;;;0.56;100.00
44297;BME280;51842;47.450;8.654;2024-01-07T08:17:32;94889.28;;;0.61;100.00
44297;BME280;51842;47.450;8.654;2024-01-07T08:19:57;94895.91;;;0.63;100.00
44297;BME280;51842;47.450;8.654;2024-01-07T08:22:23;94887.44;;;0.61;100.00
44297;BME280;51842;47.450;8.654;2024-01-07T08:24:49;94897.50;;;0.64;100.00
44297;BME280;51842;47.450;8.654;2024-01-07T08:27:16;94898.66;;;0.68;100.00
44297;BME280;51842;47.450;8.654;2024-01-07T08:29:45;94908.94;;;0.70;100.00
44297;BME280;51842;47.450;8.654;2024-01-07T08:32:11;94908.06;;;0.76;100.00
44297;BME280;51842;47.450;8.654;2024-01-07T08:34:38;94895.31;;;0.80;100.00
44297;BME280;51842;47.450;8.654;2024-01-07T08:37:07;94902.13;;;0.81;100.00
44297;BME280;51842;47.450;8.654;2024-01-07T08:39:33;94901.34;;;0.80;100.00
44297;BME280;51842;47.450;8.654;2024-01-07T08:41:59;94899.00;;;0.90;100.00
44297;BME280;51842;47.450;8.654;2024-01-07T08:44:24;94906.22;;;0.95;100.00
44297;BME280;51842;47.450;8.654;2024-01-07T08:46:50;94909.41;;;0.97;100.00
44297;BME280;51842;47.450;8.654;2024-01-07T08:49:16;94906.72;;;1.04;100.00
44297;BME280;51842;47.450;8.654;2024-01-07T08:51:42;94907.88;;;1.08;100.00
44297;BME280;51842;47.450;8.654;2024-01-07T08:54:08;94913.47;;;1.11;100.00
44297;BME280;51842;47.450;8.654;2024-01-07T08:56:34;94912.59;;;1.18;100.00
44297;BME280;51842;47.450;8.654;2024-01-07T08:59:00;94922.53;;;1.27;100.00
44297;BME280;51842;47.450;8.654;2024-01-07T09:01:26;94928.16;;;1.31;100.00
44297;BME280;51842;47.450;8.654;2024-01-07T09:03:52;94919.81;;;1.34;100.00
44297;BME280;51842;47.450;8.654;2024-01-07T09:06:18;94927.84;;;1.39;100.00
44297;BME280;51842;47.450;8.654;2024-01-07T09:08:43;94924.31;;;1.45;100.00
44297;BME280;51842;47.450;8.654;2024-01-07T09:11:09;94930.03;;;1.42;100.00
44297;BME280;51842;47.450;8.654;2024-01-07T09:13:38;94929.34;;;1.47;100.00
44297;BME280;51842;47.450;8.654;2024-01-07T09:16:05;94931.06;;;1.53;100.00
44297;BME280;51842;47.450;8.654;2024-01-07T09:18:31;94930.41;;;1.57;100.00
44297;BME280;51842;47.450;8.654;2024-01-07T09:20:57;94942.50;;;1.58;100.00
44297;BME280;51842;47.450;8.654;2024-01-07T09:23:23;94933.59;;;1.59;100.00
44297;BME280;51842;47.450;8.654;2024-01-07T09:25:49;94939.22;;;1.63;100.00
44297;BME280;51842;47.450;8.654;2024-01-07T09:28:15;94941.03;;;1.62;100.00
44297;BME280;51842;47.450;8.654;2024-01-07T09:30:41;94939.78;;;1.65;100.00
44297;BME280;51842;47.450;8.654;2024-01-07T09:33:07;94946.56;;;1.73;100.00
44297;BME280;51842;47.450;8.654;2024-01-07T09:35:32;94947.91;;;1.75;100.00
44297;BME280;51842;47.450;8.654;2024-01-07T09:37:58;94947.72;;;1.77;100.00
44297;BME280;51842;47.450;8.654;2024-01-07T09:40:24;94948.50;;;1.77;100.00
44297;BME280;51842;47.450;8.654;2024-01-07T09:42:50;94940.19;;;1.80;100.00
44297;BME280;51842;47.450;8.654;2024-01-07T09:45:18;94952.41;;;1.87;100.00
44297;BME280;51842;47.450;8.654;2024-01-07T09:47:45;94943.03;;;1.91;100.00
44297;BME280;51842;47.450;8.654;2024-01-07T09:50:12;94951.97;;;1.90;100.00
44297;BME280;51842;47.450;8.654;2024-01-07T09:52:44;94938.03;;;1.89;100.00
44297;BME280;51842;47.450;8.654;2024-01-07T09:55:27;94945.84;;;2.07;100.00
44297;BME280;51842;47.450;8.654;2024-01-07T09:57:56;94945.03;;;2.07;100.00
44297;BME280;51842;47.450;8.654;2024-01-07T10:00:22;94942.41;;;2.19;100.00
44297;BME280;51842;47.450;8.654;2024-01-07T10:02:48;94948.13;;;2.27;100.00
44297;BME280;51842;47.450;8.654;2024-01-07T10:05:14;94943.78;;;2.33;100.00
44297;BME280;51842;47.450;8.654;2024-01-07T10:07:39;94946.19;;;2.35;100.00
44297;BME280;51842;47.450;8.654;2024-01-07T10:10:18;94944.47;;;2.40;100.00
44297;BME280;51842;47.450;8.654;2024-01-07T10:12:45;94949.94;;;2.50;100.00
44297;BME280;51842;47.450;8.654;2024-01-07T10:15:13;94943.34;;;2.48;100.00
44297;BME280;51842;47.450;8.654;2024-01-07T10:17:41;94949.41;;;2.48;100.00
44297;BME280;51842;47.450;8.654;2024-01-07T10:20:11;94954.41;;;2.50;100.00
44297;BME280;51842;47.450;8.654;2024-01-07T10:22:39;94946.41;;;2.57;100.00
44297;BME280;51842;47.450;8.654;2024-01-07T10:25:06;94946.66;;;2.55;100.00
44297;BME280;51842;47.450;8.654;2024-01-07T10:27:38;94944.34;;;2.59;100.00
44297;BME280;51842;47.450;8.654;2024-01-07T10:30:05;94942.06;;;2.62;100.00
44297;BME280;51842;47.450;8.654;2024-01-07T10:32:31;94941.97;;;2.57;100.00
44297;BME280;51842;47.450;8.654;2024-01-07T10:35:04;94944.94;;;2.61;100.00
44297;BME280;51842;47.450;8.654;2024-01-07T10:37:32;94946.06;;;2.53;100.00
44297;BME280;51842;47.450;8.654;2024-01-07T10:39:59;94937.25;;;2.59;100.00
44297;BME280;51842;47.450;8.654;2024-01-07T10:42:31;94942.75;;;2.58;100.00
44297;BME280;51842;47.450;8.654;2024-01-07T10:45:01;94941.38;;;2.55;100.00
44297;BME280;51842;47.450;8.654;2024-01-07T10:47:32;94934.88;;;2.58;100.00
44297;BME280;51842;47.450;8.654;2024-01-07T10:50:02;94938.31;;;2.58;100.00
44297;BME280;51842;47.450;8.654;2024-01-07T10:52:29;94940.69;;;2.60;100.00
44297;BME280;51842;47.450;8.654;2024-01-07T10:55:09;94938.50;;;2.57;100.00
44297;BME280;51842;47.450;8.654;2024-01-07T10:57:47;94931.78;;;2.61;100.00
44297;BME280;51842;47.450;8.654;2024-01-07T11:00:14;94934.41;;;2.61;100.00
44297;BME280;51842;47.450;8.654;2024-01-07T11:06:51;94940.94;;;2.70;100.00
44297;BME280;51842;47.450;8.654;2024-01-07T11:09:38;94933.13;;;2.63;100.00
44297;BME280;51842;47.450;8.654;2024-01-07T11:12:06;94937.84;;;2.73;100.00
44297;BME280;51842;47.450;8.654;2024-01-07T11:14:44;94931.53;;;2.74;100.00
44297;BME280;51842;47.450;8.654;2024-01-07T11:20:17;94930.38;;;2.82;100.00
44297;BME280;51842;47.450;8.654;2024-01-07T11:22:44;94927.53;;;2.83;100.00
44297;BME280;51842;47.450;8.654;2024-01-07T11:25:43;94924.56;;;2.80;100.00
44297;BME280;51842;47.450;8.654;2024-01-07T11:28:08;94927.88;;;2.75;100.00
44297;BME280;51842;47.450;8.654;2024-01-07T11:30:38;94924.66;;;2.85;100.00
44297;BME280;51842;47.450;8.654;2024-01-07T11:33:12;94923.06;;;2.84;100.00
44297;BME280;51842;47.450;8.654;2024-01-07T11:36:00;94926.47;;;2.84;100.00
44297;BME280;51842;47.450;8.654;2024-01-07T11:38:27;94912.19;;;2.80;100.00
44297;BME280;51842;47.450;8.654;2024-01-07T11:40:56;94923.06;;;2.72;100.00
44297;BME280;51842;47.450;8.654;2024-01-07T11:43:23;94919.31;;;2.68;100.00
44297;BME280;51842;47.450;8.654;2024-01-07T11:45:52;94921.13;;;2.67;100.00
44297;BME280;51842;47.450;8.654;2024-01-07T11:48:20;94919.09;;;2.58;100.00
44297;BME280;51842;47.450;8.654;2024-01-07T11:50:46;94921.94;;;2.56;100.00
44297;BME280;51842;47.450;8.654;2024-01-07T11:53:12;94921.94;;;2.44;100.00
44297;BME280;51842;47.450;8.654;2024-01-07T11:55:39;94918.63;;;2.49;100.00
44297;BME280;51842;47.450;8.654;2024-01-07T11:58:04;94924.13;;;2.47;100.00
44297;BME280;51842;47.450;8.654;2024-01-07T12:00:35;94930.75;;;2.50;100.00
44297;BME280;51842;47.450;8.654;2024-01-07T12:03:01;94922.75;;;2.57;100.00
44297;BME280;51842;47.450;8.654;2024-01-07T12:05:28;94914.63;;;2.46;100.00
44297;BME280;51842;47.450;8.654;2024-01-07T12:07:55;94927.78;;;2.35;100.00
44297;BME280;51842;47.450;8.654;2024-01-07T12:10:23;94915.47;;;2.35;100.00
44297;BME280;51842;47.450;8.654;2024-01-07T12:12:50;94929.50;;;2.29;100.00
44297;BME280;51842;47.450;8.654;2024-01-07T12:15:20;94922.16;;;2.19;100.00
44297;BME280;51842;47.450;8.654;2024-01-07T12:17:59;94929.94;;;2.02;100.00
44297;BME280;51842;47.450;8.654;2024-01-07T12:20:28;94928.91;;;2.03;100.00
44297;BME280;51842;47.450;8.654;2024-01-07T12:23:05;94922.84;;;2.03;100.00
44297;BME280;51842;47.450;8.654;2024-01-07T12:25:31;94927.19;;;1.97;100.00
44297;BME280;51842;47.450;8.654;2024-01-07T12:27:57;94917.94;;;1.95;100.00
44297;BME280;51842;47.450;8.654;2024-01-07T12:30:25;94920.66;;;2.00;100.00
44297;BME280;51842;47.450;8.654;2024-01-07T12:32:54;94920.19;;;1.91;100.00
44297;BME280;51842;47.450;8.654;2024-01-07T12:35:20;94926.44;;;1.67;100.00
44297;BME280;51842;47.450;8.654;2024-01-07T12:37:48;94925.22;;;1.81;100.00
44297;BME280;51842;47.450;8.654;2024-01-07T12:40:15;94920.84;;;1.75;100.00
44297;BME280;51842;47.450;8.654;2024-01-07T12:42:41;94923.84;;;1.78;100.00
44297;BME280;51842;47.450;8.654;2024-01-07T12:45:13;94929.34;;;1.89;100.00
44297;BME280;51842;47.450;8.654;2024-01-07T12:47:41;94927.97;;;1.86;100.00
44297;BME280;51842;47.450;8.654;2024-01-07T12:50:09;94929.53;;;1.64;100.00
44297;BME280;51842;47.450;8.654;2024-01-07T12:52:40;94931.47;;;1.68;100.00
44297;BME280;51842;47.450;8.654;2024-01-07T12:55:07;94933.88;;;1.70;100.00
44297;BME280;51842;47.450;8.654;2024-01-07T12:57:34;94935.91;;;1.68;100.00
44297;BME280;51842;47.450;8.654;2024-01-07T13:00:01;94938.31;;;1.69;100.00
44297;BME280;51842;47.450;8.654;2024-01-07T13:02:27;94942.22;;;1.67;100.00
44297;BME280;51842;47.450;8.654;2024-01-07T13:04:53;94934.03;;;1.45;100.00
44297;BME280;51842;47.450;8.654;2024-01-07T13:07:19;94943.91;;;1.61;100.00